Timeline UpdatesTrip UpdatesNews PostsPvt PostsTravel TipsAdmin PostsConv PostsFollowed PostsChat RequestsBlog PostsPNR Posts

Disclaimer
Search
 
 
Sat Aug 23, 2014 14:58:14 ISTHomeTrainsΣChainsAtlasPNRForumGalleryNewsFAQTripsMembersLoginFeedback
No Recent News for this Train
Other Trains in the News **new
Latest...
.
Fri Jun 20, 2014 (04:04PM)
⇐ Return Journey: Train# 12522

12521/Rapti Sagar SF Express

Jul 02 2013 (6:46PM)
Change Departure Station:
Change Arrival Station:
Post a Train Travel TipPost a Train Travel Tip **new
Post a Comment/Question/Picture/VideoPost a Comment/Question/Picture/Video
Pantry/Catering
✓ Pantry Car Avbl
✓ Catering Avbl
Loco/Rake Reversals
LJN/Lucknow Junction (6); SRR/Shoranur Junction (7); MAS/Chennai Central (12);
RSA - Rake Sharing
NO RSA.
Rake/Coach Composition
LOCO-SLR-GS-A1-B1-B2-B3-PC-S1-S2-S3-S4-S5-S6-S7-S8-S9-S10-S11-S12-S13-S14-GS-GS-SLR
Loco
Loco Link: BJU to JHS - GD WDM 3A JHS to MAS...
Read more...
- ET WAP 4 MAS to ERS - AJJ WAM 4
News    PNR    Forum    Time-Table    Availability    Fare Chart    Map    Arr/Dep History    Trips    Gallery    ΣChains    X/O    Timeline    
Travel Time: 5h 0m    2 halts    Distance: 334 km    Avg Speed: 66 km/hr
Type: SuperFast
Zone: ECR/East Central
Departs @ 23:45 (Avg 2h 12m late)
Platform# 8
   W   
Chennai Central/MAS 
Arrives @ 04:45 +1 night (Avg 2h 18m late)
Platform# ???
    T  
Salem Junction/SA 

2 halts. 71 intermediate Stations between Chennai Central and Salem Junction

Show ALL intermediate Stations  Show Old Time-Table

#CodeStation NameX/OArrivesAvgDepartsAvgHaltPFDay#KmSpeedElevZoneAddress
1BJUBarauni Junction (9)  -23:00+251-2735.35749mECRBegusarai, Bihar
2SPJSamastipur Junction (9)  23:53+1123:58+115m--1-2684.76455mECRSamastipur, Bihar
3MFPMuzaffarpur Junction (6)  00:47+1800:57+1810m42-2632.66057mECRMuzaffarpur, Bihar
4HJPHajipur Junction (3)  01:51+3301:52+411m22-2578.83355mECR06224-272230, Bihar
5SEESonpur Junction (4)X  02:02+4302:05+433m--2-2573.35956mECRSaran, Bihar
6CPRChhapra Junction (6)  03:00+1:0203:05+1:045m--2-2519.28258mNERDistt: Saran, Bihar
7SVSiwan Junction (4)  03:50+1:1303:55+1:135m--2-2458.08470mNERSiwan, Bihar
8BTTBhatni Junction (5)  04:30+1:2204:35+1:215m--2-2409.36673mNERDeoria, Uttar Pradesh
9DEOSDeoria Sadar (3)  04:54+1:2704:55+1:301m--2-2388.53579mNERDeoria- 274001, Uttar Pradesh
10GKPGorakhpur Junction (10)X  06:20+1:1606:35+1:1815m92-2339.45584mNERGorakhpur 273001, Uttar Pradesh
11KLDKhalilabad (3)  07:12+1:2407:13+1:251m32-2305.56686mNERKhalilabad- 272175, Uttar Pradesh
12BSTBasti (4)  07:40+1:2607:45+1:265m12-2275.97390mNERBasti 272001, Uttar Pradesh
13MURMankapur Junction (5)O  08:35+1:2408:37+1:242m12-2215.473104mNERDistrict Gonda, Uttar Pradesh
14GDGonda Junction (3)  09:00+1:2809:05+1:315m12-2187.565110mNERGonda 271001, Uttar Pradesh
15BBKBarabanki Junction (4)  10:27+1:3010:29+1:302m12-2098.253122mNRPin-225001, Uttar Pradesh
16BNZBadshahnagar (2)  10:57+1:4410:58+1:451m12-2073.621116mNERLucknow, Uttar Pradesh
17LJNLucknow Junction (6)X11:30+1:2811:50+1:2720m12-2062.662126mNERLucknow, Uttar Pradesh
18ONUnnao Junction (5)X  12:42+1:4312:43+1:441m52-2008.731129mNRUnnao, Uttar Pradesh
19CNBKanpur Central (10)  13:17+1:5313:22+2:035m52-1991.363128mNCRKANPUR-208 001, Uttar Pradesh
20PHNPokhrayan (2)  14:18+2:2114:19+2:241m12-1932.872133mNCRPukhrayan, Uttar Pradesh
21ORAIOrai (3)  14:59+2:3015:00+2:331m--2-1885.065139mNCROrai(05162-252206), Uttar Pradesh
22JHSJhansi Junction (7)16:45+2:3317:00+2:5415m--2-1771.086259mNCRJhansi, Uttar Pradesh
23LARLalitpur (3)  18:03+3:1418:04+3:181m12-1680.767373mNCRLalitpur, Uttar Pradesh
24BPLBhopal Junction (6)X  21:05+3:0221:15+3:0010m12-1479.252497mWCRBhopal, Madhya Pradesh
25ETItarsi Junction (7)  23:00+2:5623:05+3:005m--2-1387.567329mWCRItarsi 461111, Madhya Pradesh
26GDYAGhoradongri (3)  00:08+3:0600:09+3:071m--3-1317.148 CRBetul, Madhya Pradesh
27BZUBetul (3)X  00:54+3:1300:55+3:151m--3-1281.257644mCRBetul, Madhya Pradesh
28AMLAAmla Junction (5)XO  01:19+3:1901:22+3:183m--3-1258.362733mCRAmla Distt. Betul, Madhya Pradesh
29PARPandhurna (2)X  02:24+3:2602:25+3:271m--3-1194.760481mCRDistt: Chhindwara, Madhya Pradesh
30NGPNagpur Junction (8)  04:10+3:1504:20+3:1810m23-1090.378314mCRNagpur 440001, Maharashtra
31SEGMSewagram Junction (5)  05:19+3:3105:20+3:341m--3-1014.169279mCRWardha, Maharashtra
32HGTHinganghat (3)  05:49+3:3105:50+3:321m--3-981.077228mCRHinganghat, Maharashtra
33CDChandrapur Maharashtra (3)  06:57+3:3306:58+3:341m--3-895.612194mCRChandrapur 442401, Maharashtra
34BPQBalharshah Junction (5)XO  08:05+2:5308:35+2:3830m--3-881.884188mCRBallarpur. Ph : 07172 - 240341, Maharashtra
35SKZRSirpur Kaghaznagar (3)  09:25+2:4509:26+2:471m23-812.062181mSCRAdilabad Dist., Telangana
36BPABellampalli (3)  10:03+2:4710:04+2:471m23-773.679205mSCRTel:.08735 223298, Telangana
37MCIManchiryal (3)  10:19+2:5410:20+2:541m23-753.792159mSCRAdilabad Dist., Telangana
38RDMRamagundam (3)X  10:29+3:1110:30+3:131m23-740.065170mSCRKarimnagar Dist. Ph : 08728 - 255237, Telangana
39WLWarangal (3)  12:03+3:0812:05+3:102m13-638.871271mSCRWarangal., Telangana
40KMTKhammam (2)  13:36+2:3213:37+2:331m13-531.245118mSCRKhammam 507001, Telangana
41BZAVijayawada Junction (10)X  15:50+2:3516:05+2:3615m73-430.97324mSCRVijayawada 520001, Andhra Pradesh
42CLXChirala (4)  17:18+2:5017:19+2:511m--3-341.9678mSCRChirala, Andhra Pradesh
43OGLOngole (3)X  18:03+2:4618:04+2:501m33-292.69312mSCROngole, Andhra Pradesh
44NLRNellore (4)  19:19+1:4619:20+1:461m33-175.82521mSCRNellore, Andhra Pradesh
45GDRGudur Junction (3)  20:53+2:1820:55+2:182m13-137.45719mSCRGudur, Andhra Pradesh
46MAS»Chennai Central (12)»X23:20+2:1523:45+2:1225m830.0659mSRChennai 600003, Tamil Nadu
47KPDKatpadi Junction (5)X  01:45+2:3401:50+2:315m14129.459213mSRVellore 632007, Tamil Nadu
48JTJJolarpettai Junction (5)  03:15+2:1203:20+2:115m--4213.385405mSRJolarpettai, Tamil Nadu
49SA•Salem Junction (6)•X  04:45+2:1804:50+2:175m--4333.549283mSRSalem, Tamil Nadu
50EDErode Junction (4)X  06:05+2:2306:15+2:3310m24394.970175mSRErode ph.no: 0424-2256111, Tamil Nadu
51TUPTiruppur (2)  06:58+2:3107:00+2:312m14445.161305mSRTiruppur. Ph:0421-2200450, Tamil Nadu
52CBECoimbatore Main Junction (6)X  07:50+2:0507:55+2:055m14495.647416mSRCoimbatore 641001, Tamil Nadu
53PGTPalakkad Junction (4)XO  09:05+2:0809:10+2:095m--4550.96684mSRPalghat Tel: 0491 2555231, Kerala
54OTPOttappalam (2)X  09:39+2:1309:40+2:141m--4582.61930mSROttapalam, Kerala
55SRRShoranur Junction (7)X10:20+1:4010:30+1:5210m54595.55226mSRShoranur ph.no 0466-2222913, Kerala
56WKIWadakkanchery (2)X  10:49+2:4510:50+2:451m14612.03640mSRWadackanchery, Kerala
57TCRThrissur (4)  11:17+2:1711:20+2:183m14628.4596mSRThrissur Tel: 0487 2423150, Kerala
58IJKIrinjalakkuda (2)  11:44+1:2811:45+1:281m--4652.24318mSRKalletumkara, Kerala
59CKIChalakkudy (3)X  11:54+1:4711:55+1:481m14658.6659mSRPh: 0480- 2701368, Kerala
60AFKAngamaly for Kalady (3)  12:09+1:5212:10+1:541m--4673.85016mSRPhone: 0484-2452340, Kerala
61AWYAluva (3)  12:21+2:3812:23+2:372m14683.03212mSRPh: 0484-2624141, Kerala
62ERNErnakulam Town (North) (2)  12:55+2:2212:57+2:222m24699.999mSRTel: 0484 2395198, Kerala
63ERSErnakulam Junction (South) (6)  13:15+2:14---4702.4-3mSRErnakulam 682016, Kerala
Scroll to Top
Scroll to Bottom